createdAt,value
2022-10-01T00:01:17.282Z,11.07
2022-10-01T00:03:44.180Z,11.60
2022-10-01T00:06:19.735Z,11.18
2022-10-01T00:08:48.377Z,7.13
2022-10-01T00:11:16.929Z,9.50
2022-10-01T00:13:43.170Z,10.82
2022-10-01T00:16:12.885Z,10.73
2022-10-01T00:18:42.318Z,10.98
2022-10-01T00:21:11.092Z,10.77
2022-10-01T00:23:39.015Z,12.15
2022-10-01T00:26:17.550Z,11.35
2022-10-01T00:28:46.804Z,13.70
2022-10-01T00:31:15.020Z,11.27
2022-10-01T00:33:42.215Z,12.80
2022-10-01T00:36:10.110Z,12.23
2022-10-01T00:38:39.471Z,11.50
2022-10-01T00:41:06.906Z,10.60
2022-10-01T00:43:37.246Z,10.68
2022-10-01T00:46:17.791Z,13.43
2022-10-01T00:49:00.402Z,13.80
2022-10-01T00:51:31.621Z,9.48
2022-10-01T00:54:12.885Z,12.05
2022-10-01T00:56:39.841Z,11.38
2022-10-01T00:59:07.360Z,12.45
2022-10-01T01:01:36.835Z,12.38
2022-10-01T01:04:03.939Z,10.90
2022-10-01T01:06:30.553Z,9.52
2022-10-01T01:08:56.890Z,8.80
2022-10-01T01:11:57.831Z,8.15
2022-10-01T01:14:28.751Z,8.52
2022-10-01T01:17:14.254Z,6.82
2022-10-01T01:19:58.559Z,9.05
2022-10-01T01:22:31.986Z,7.85
2022-10-01T01:25:19.096Z,5.82
2022-10-01T01:27:59.938Z,7.95
2022-10-01T01:30:26.375Z,5.85
2022-10-01T01:32:56.598Z,8.38
2022-10-01T01:35:31.538Z,4.95
2022-10-01T01:38:09.733Z,7.00
2022-10-01T01:40:39.448Z,6.72
2022-10-01T01:43:11.320Z,7.43
2022-10-01T01:45:39.370Z,7.40
2022-10-01T01:48:08.667Z,7.70
2022-10-01T01:50:43.879Z,7.38
2022-10-01T01:53:10.679Z,6.88
2022-10-01T01:55:38.279Z,8.05
2022-10-01T01:58:04.695Z,8.55
2022-10-01T02:00:31.095Z,7.78
2022-10-01T02:02:58.496Z,8.50
2022-10-01T02:05:28.474Z,7.60
2022-10-01T02:08:21.350Z,8.20
2022-10-01T02:11:09.922Z,6.63
2022-10-01T02:13:38.345Z,6.10
2022-10-01T02:16:32.677Z,6.85
2022-10-01T02:19:01.022Z,6.68
2022-10-01T02:21:41.538Z,3.35
2022-10-01T02:24:20.979Z,5.93
2022-10-01T02:26:48.429Z,5.50
2022-10-01T02:29:17.974Z,6.30
2022-10-01T02:31:46.692Z,6.13
2022-10-01T02:34:20.000Z,6.25
2022-10-01T02:36:49.384Z,5.40
2022-10-01T02:39:17.967Z,6.10
2022-10-01T02:41:47.185Z,5.85
2022-10-01T02:44:17.928Z,5.00
2022-10-01T02:46:59.909Z,4.28
2022-10-01T02:49:30.713Z,4.53
2022-10-01T02:52:16.477Z,4.40
2022-10-01T02:54:50.297Z,5.35
2022-10-01T02:57:23.424Z,4.72
2022-10-01T02:59:57.257Z,5.10
2022-10-01T03:02:27.094Z,5.43
2022-10-01T03:04:56.980Z,4.10
2022-10-01T03:07:24.823Z,5.70
2022-10-01T03:09:51.289Z,5.60
2022-10-01T03:12:17.926Z,6.05
2022-10-01T03:14:45.159Z,5.93
2022-10-01T03:17:13.383Z,5.72
2022-10-01T03:19:39.867Z,6.20
2022-10-01T03:22:07.720Z,6.53
2022-10-01T03:24:33.950Z,6.53
2022-10-01T03:27:00.367Z,6.43
2022-10-01T03:29:26.661Z,7.63
2022-10-01T03:31:54.826Z,7.65
2022-10-01T03:34:21.296Z,7.30
2022-10-01T03:36:47.889Z,7.10
2022-10-01T03:39:14.084Z,7.97
2022-10-01T03:41:40.225Z,9.60
2022-10-01T03:44:06.800Z,8.18
2022-10-01T03:46:32.876Z,9.35
2022-10-01T03:49:00.517Z,8.15
2022-10-01T03:51:28.583Z,9.73
2022-10-01T03:53:55.811Z,10.80
2022-10-01T03:56:22.326Z,11.43
2022-10-01T03:58:48.673Z,10.90
2022-10-01T04:01:15.972Z,11.57
2022-10-01T04:03:43.177Z,12.15
2022-10-01T04:06:09.830Z,13.13
2022-10-01T04:08:37.352Z,12.15
2022-10-01T04:11:05.380Z,14.35
2022-10-01T04:13:32.474Z,14.30
2022-10-01T04:15:58.610Z,17.20
2022-10-01T04:18:25.076Z,16.05
2022-10-01T04:20:51.476Z,15.80
2022-10-01T04:23:19.918Z,17.35
2022-10-01T04:25:46.054Z,15.82
2022-10-01T04:28:13.665Z,16.42
2022-10-01T04:30:42.262Z,17.45
2022-10-01T04:33:11.771Z,16.52
2022-10-01T04:35:39.122Z,18.80
2022-10-01T04:38:08.005Z,18.45
2022-10-01T04:40:35.869Z,18.98
2022-10-01T04:43:03.326Z,20.63
2022-10-01T04:45:30.765Z,20.08
2022-10-01T04:47:59.285Z,20.60
2022-10-01T04:50:27.748Z,21.05
2022-10-01T04:52:54.133Z,20.98
2022-10-01T04:55:21.498Z,20.85
2022-10-01T04:57:49.059Z,20.38
2022-10-01T05:00:21.546Z,20.35
2022-10-01T05:02:48.949Z,20.75
2022-10-01T05:05:16.463Z,21.02
2022-10-01T05:07:44.344Z,21.85
2022-10-01T05:10:14.244Z,23.55
2022-10-01T05:12:40.885Z,22.60
2022-10-01T05:15:07.748Z,28.58
2022-10-01T05:17:34.389Z,25.90
2022-10-01T05:20:02.398Z,22.80
2022-10-01T05:22:28.475Z,24.10
2022-10-01T05:24:54.668Z,21.25
2022-10-01T05:27:23.418Z,22.10
2022-10-01T05:29:50.146Z,22.38
2022-10-01T05:32:17.171Z,20.88
2022-10-01T05:34:43.263Z,23.27
2022-10-01T05:37:10.509Z,20.58
2022-10-01T05:39:37.195Z,20.90
2022-10-01T05:42:06.349Z,20.58
2022-10-01T05:44:37.442Z,19.75
2022-10-01T05:47:05.903Z,18.65
2022-10-01T05:49:33.312Z,18.38
2022-10-01T05:52:02.581Z,20.38
2022-10-01T05:54:29.140Z,18.90
2022-10-01T05:56:56.859Z,20.45
2022-10-01T05:59:27.332Z,18.92
2022-10-01T06:01:56.073Z,17.27
2022-10-01T06:04:22.241Z,18.30
2022-10-01T06:06:48.640Z,19.35
2022-10-01T06:09:15.139Z,19.33
2022-10-01T06:11:41.883Z,18.75
2022-10-01T06:14:07.954Z,21.15
2022-10-01T06:16:35.192Z,21.92
2022-10-01T06:19:01.492Z,19.25
2022-10-01T06:21:27.881Z,19.95
2022-10-01T06:23:54.473Z,21.38
2022-10-01T06:26:21.047Z,21.65
2022-10-01T06:28:52.316Z,22.08
2022-10-01T06:31:19.416Z,21.55
2022-10-01T06:33:45.552Z,21.45
2022-10-01T06:36:11.707Z,21.77
2022-10-01T06:38:38.120Z,21.83
2022-10-01T06:41:04.688Z,21.10
2022-10-01T06:43:32.358Z,22.33
2022-10-01T06:46:03.389Z,22.80
2022-10-01T06:48:31.229Z,22.08
2022-10-01T06:50:59.927Z,21.65
2022-10-01T06:53:27.762Z,21.23
2022-10-01T06:55:54.331Z,22.88
2022-10-01T06:58:22.868Z,22.65
2022-10-01T07:00:49.614Z,23.02
2022-10-01T07:03:20.424Z,22.42
2022-10-01T07:05:47.548Z,23.40
2022-10-01T07:08:13.881Z,20.98
2022-10-01T07:10:40.935Z,22.73
2022-10-01T07:13:08.152Z,19.42
2022-10-01T07:15:34.320Z,19.65
2022-10-01T07:18:00.602Z,18.92
2022-10-01T07:20:27.135Z,18.83
2022-10-01T07:22:57.946Z,17.10
2022-10-01T07:25:25.136Z,16.70
2022-10-01T07:27:56.362Z,17.10
2022-10-01T07:30:23.509Z,14.75
2022-10-01T07:32:49.833Z,17.30
2022-10-01T07:35:19.692Z,16.63
2022-10-01T07:37:49.944Z,16.52
2022-10-01T07:40:17.495Z,16.58
2022-10-01T07:42:55.087Z,17.52
2022-10-01T07:45:25.276Z,17.77
2022-10-01T07:48:01.170Z,17.35
2022-10-01T07:50:29.839Z,16.20
2022-10-01T07:52:57.806Z,14.68
2022-10-01T07:55:26.336Z,12.45
2022-10-01T07:57:54.451Z,10.77
2022-10-01T08:00:22.787Z,10.35
2022-10-01T08:02:55.546Z,10.68
2022-10-01T08:05:24.314Z,9.57
2022-10-01T08:07:50.958Z,13.20
2022-10-01T08:10:22.842Z,9.05
2022-10-01T08:12:49.055Z,6.03
2022-10-01T08:15:17.508Z,5.43
2022-10-01T08:17:44.721Z,6.35
2022-10-01T08:20:12.563Z,4.65
2022-10-01T08:22:42.089Z,4.70
2022-10-01T08:25:08.938Z,3.60
2022-10-01T08:27:35.194Z,3.20
2022-10-01T08:30:01.324Z,3.63
2022-10-01T08:32:27.560Z,3.10
2022-10-01T08:34:59.176Z,2.33
2022-10-01T08:37:30.365Z,2.40
2022-10-01T08:39:56.586Z,1.80
2022-10-01T08:42:32.665Z,2.25
2022-10-01T08:45:03.660Z,2.17
2022-10-01T08:47:47.318Z,2.63
2022-10-01T08:50:35.532Z,1.60
2022-10-01T08:53:05.111Z,1.92
2022-10-01T08:55:35.957Z,1.92
2022-10-01T08:58:05.649Z,2.08
2022-10-01T09:00:34.763Z,2.20
2022-10-01T09:03:05.708Z,2.20
2022-10-01T09:05:53.897Z,1.85
2022-10-01T09:08:43.023Z,1.92
2022-10-01T09:11:21.338Z,2.30
2022-10-01T09:14:11.948Z,2.28
2022-10-01T09:17:03.725Z,2.13
2022-10-01T09:19:32.818Z,2.42
2022-10-01T09:22:05.443Z,2.55
2022-10-01T09:24:41.074Z,2.67
2022-10-01T09:27:27.208Z,2.10
2022-10-01T09:30:02.057Z,2.25
2022-10-01T09:32:52.699Z,2.25
2022-10-01T09:35:54.153Z,2.70
2022-10-01T09:38:43.238Z,2.22
2022-10-01T09:41:11.021Z,2.30
2022-10-01T09:43:39.684Z,3.38
2022-10-01T09:46:12.752Z,2.53
2022-10-01T09:49:01.618Z,2.78
2022-10-01T09:51:52.128Z,2.72
2022-10-01T09:54:46.382Z,2.63
2022-10-01T09:57:21.560Z,2.38
2022-10-01T09:59:55.677Z,2.42
2022-10-01T10:02:33.709Z,2.10
2022-10-01T10:05:05.475Z,2.42
2022-10-01T10:07:34.153Z,3.38
2022-10-01T10:10:26.890Z,2.90
2022-10-01T10:13:07.265Z,2.90
2022-10-01T10:15:35.293Z,2.67
2022-10-01T10:18:12.479Z,2.60
2022-10-01T10:20:43.723Z,2.85
2022-10-01T10:23:18.858Z,2.92
2022-10-01T10:26:02.982Z,2.70
2022-10-01T10:28:44.108Z,2.70
2022-10-01T10:31:15.568Z,2.88
2022-10-01T10:36:19.278Z,2.85
2022-10-01T10:38:50.380Z,2.80
2022-10-01T10:41:21.884Z,2.85
2022-10-01T10:43:48.627Z,2.10
2022-10-01T10:46:26.569Z,2.63
2022-10-01T10:49:05.512Z,3.00
2022-10-01T10:51:48.109Z,1.83
2022-10-01T10:54:19.865Z,2.17
2022-10-01T10:57:02.687Z,1.77
2022-10-01T10:59:33.432Z,2.00
2022-10-01T11:04:39.533Z,2.17
2022-10-01T11:07:09.921Z,2.13
2022-10-01T11:09:53.076Z,2.20
2022-10-01T11:12:49.888Z,2.10
2022-10-01T11:16:01.001Z,2.60
2022-10-01T11:18:39.308Z,2.20
2022-10-01T11:21:28.920Z,2.80
2022-10-01T11:24:10.768Z,2.10
2022-10-01T11:27:01.798Z,1.95
2022-10-01T11:29:34.889Z,2.80
2022-10-01T11:32:38.888Z,2.30
2022-10-01T11:35:12.737Z,2.67
2022-10-01T11:38:06.108Z,2.95
2022-10-01T11:40:38.925Z,2.35
2022-10-01T11:43:42.993Z,2.47
2022-10-01T11:46:14.637Z,3.05
2022-10-01T11:48:48.542Z,2.70
2022-10-01T11:51:23.786Z,2.10
2022-10-01T11:53:58.420Z,2.20
2022-10-01T11:56:49.015Z,2.40
2022-10-01T11:59:22.937Z,2.60
2022-10-01T12:02:18.084Z,2.47
2022-10-01T12:04:51.414Z,2.50
2022-10-01T12:07:28.854Z,2.70
2022-10-01T12:09:55.031Z,2.30
2022-10-01T12:12:59.835Z,2.50
2022-10-01T12:15:32.406Z,2.13
2022-10-01T12:18:18.027Z,2.30
2022-10-01T12:20:51.131Z,2.58
2022-10-01T12:23:26.978Z,2.53
2022-10-01T12:26:21.130Z,2.33
2022-10-01T12:29:01.784Z,2.40
2022-10-01T12:32:23.485Z,2.78
2022-10-01T12:35:27.282Z,2.97
2022-10-01T12:38:08.423Z,2.10
2022-10-01T12:43:26.960Z,2.42
2022-10-01T12:46:41.718Z,2.30
2022-10-01T12:49:28.404Z,2.05
2022-10-01T12:52:10.230Z,2.20
2022-10-01T12:54:42.270Z,2.63
2022-10-01T12:57:11.160Z,2.70
2022-10-01T13:00:01.873Z,2.15
2022-10-01T13:03:04.730Z,2.47
2022-10-01T13:05:56.524Z,3.22
2022-10-01T13:08:44.362Z,2.55
2022-10-01T13:11:25.794Z,2.80
2022-10-01T13:13:54.703Z,2.58
2022-10-01T13:16:36.278Z,2.35
2022-10-01T13:19:13.792Z,2.28
2022-10-01T13:22:07.141Z,3.00
2022-10-01T13:24:45.576Z,2.72
2022-10-01T13:27:56.666Z,3.10
2022-10-01T13:30:25.981Z,6.60
2022-10-01T13:33:04.583Z,2.58
2022-10-01T13:35:44.118Z,2.95
2022-10-01T13:38:28.601Z,3.83
2022-10-01T13:41:01.350Z,6.05
2022-10-01T13:43:29.920Z,3.00
2022-10-01T13:46:08.349Z,4.45
2022-10-01T13:48:44.966Z,3.78
2022-10-01T13:51:13.692Z,2.85
2022-10-01T13:53:43.127Z,3.75
2022-10-01T13:56:14.360Z,3.03
2022-10-01T14:01:24.276Z,3.78
2022-10-01T14:04:32.527Z,2.25
2022-10-01T14:07:15.208Z,2.67
2022-10-01T14:09:53.866Z,2.58
2022-10-01T14:12:44.045Z,2.85
2022-10-01T14:15:44.205Z,2.40
2022-10-01T14:18:18.523Z,2.55
2022-10-01T14:21:21.806Z,3.45
2022-10-01T14:24:04.695Z,2.88
2022-10-01T14:27:00.284Z,3.17
2022-10-01T14:30:04.484Z,2.55
2022-10-01T14:33:08.312Z,2.67
2022-10-01T14:36:13.727Z,2.63
2022-10-01T14:38:40.140Z,3.30
2022-10-01T14:41:19.743Z,2.90
2022-10-01T14:43:46.266Z,7.93
2022-10-01T14:46:18.365Z,2.33
2022-10-01T14:48:58.445Z,3.22
2022-10-01T14:51:28.625Z,2.20
2022-10-01T14:53:58.831Z,3.13
2022-10-01T14:56:27.554Z,2.95
2022-10-01T14:59:01.373Z,2.75
2022-10-01T15:01:28.112Z,3.30
2022-10-01T15:03:54.602Z,3.25
2022-10-01T15:06:29.565Z,4.68
2022-10-01T15:09:12.119Z,3.40
2022-10-01T15:11:44.308Z,2.83
2022-10-01T15:14:17.800Z,2.90
2022-10-01T15:16:44.850Z,2.42
2022-10-01T15:19:17.993Z,8.75
2022-10-01T15:21:51.837Z,5.18
2022-10-01T15:24:36.301Z,3.17
2022-10-01T15:27:03.070Z,3.92
2022-10-01T15:29:29.603Z,3.30
2022-10-01T15:31:57.752Z,3.05
2022-10-01T15:34:28.528Z,3.22
2022-10-01T15:36:55.943Z,2.75
2022-10-01T15:39:40.647Z,2.90
2022-10-01T15:42:24.324Z,3.35
2022-10-01T15:44:59.031Z,3.95
2022-10-01T15:47:34.433Z,3.50
2022-10-01T15:50:10.131Z,2.33
2022-10-01T15:52:55.370Z,2.95
2022-10-01T15:55:42.155Z,2.13
2022-10-01T15:58:27.346Z,2.30
2022-10-01T16:01:10.137Z,2.10
2022-10-01T16:03:40.128Z,2.75
2022-10-01T16:06:16.333Z,3.22
2022-10-01T16:09:04.777Z,3.20
2022-10-01T16:11:31.643Z,2.95
2022-10-01T16:14:22.625Z,2.20
2022-10-01T16:16:50.492Z,2.22
2022-10-01T16:19:28.351Z,7.10
2022-10-01T16:22:14.022Z,4.30
2022-10-01T16:24:55.343Z,2.70
2022-10-01T16:27:23.042Z,2.28
2022-10-01T16:29:52.913Z,2.40
2022-10-01T16:32:19.115Z,2.40
2022-10-01T16:34:46.774Z,1.88
2022-10-01T16:37:12.982Z,2.10
2022-10-01T16:39:39.133Z,2.47
2022-10-01T16:42:22.899Z,2.05
2022-10-01T16:44:51.047Z,1.83
2022-10-01T16:47:19.445Z,2.40
2022-10-01T16:49:49.896Z,2.40
2022-10-01T16:52:16.193Z,2.23
2022-10-01T16:54:44.188Z,2.80
2022-10-01T16:57:10.717Z,2.17
2022-10-01T16:59:37.028Z,2.20
2022-10-01T17:02:03.294Z,2.67
2022-10-01T17:04:34.065Z,2.33
2022-10-01T17:07:00.649Z,2.83
2022-10-01T17:09:26.811Z,2.00
2022-10-01T17:11:53.284Z,1.95
2022-10-01T17:14:20.598Z,2.88
2022-10-01T17:16:50.250Z,3.10
2022-10-01T17:19:19.855Z,2.65
2022-10-01T17:21:46.718Z,3.85
2022-10-01T17:24:13.287Z,3.90
2022-10-01T17:26:47.592Z,6.32
2022-10-01T17:29:13.973Z,5.00
2022-10-01T17:31:43.968Z,4.53
2022-10-01T17:34:10.137Z,5.00
2022-10-01T17:36:39.062Z,4.55
2022-10-01T17:39:05.110Z,3.95
2022-10-01T17:41:31.972Z,4.28
2022-10-01T17:43:58.844Z,4.20
2022-10-01T17:46:26.026Z,5.28
2022-10-01T17:48:52.119Z,6.57
2022-10-01T17:51:20.871Z,6.60
2022-10-01T17:53:47.382Z,5.63
2022-10-01T17:56:16.332Z,5.38
2022-10-01T17:58:45.631Z,5.18
2022-10-01T18:01:16.245Z,4.55
2022-10-01T18:03:42.511Z,4.57
2022-10-01T18:06:12.850Z,4.50
2022-10-01T18:08:54.536Z,6.43
2022-10-01T18:11:22.329Z,5.05
2022-10-01T18:13:50.170Z,5.90
2022-10-01T18:16:19.283Z,4.85
2022-10-01T18:19:51.873Z,5.75
2022-10-01T18:21:32.202Z,5.22
2022-10-01T18:24:01.961Z,6.13
2022-10-01T18:26:31.098Z,4.95
2022-10-01T18:28:57.388Z,6.18
2022-10-01T18:31:25.989Z,5.97
2022-10-01T18:33:55.774Z,6.18
2022-10-01T18:36:26.409Z,5.07
2022-10-01T18:39:09.634Z,6.97
2022-10-01T18:41:38.428Z,6.53
2022-10-01T18:44:19.952Z,7.40
2022-10-01T18:46:50.473Z,4.97
2022-10-01T18:49:45.571Z,4.55
2022-10-01T18:52:39.806Z,3.90
2022-10-01T18:55:21.357Z,4.85
2022-10-01T18:58:19.517Z,5.05
2022-10-01T19:00:53.580Z,3.88
2022-10-01T19:03:45.277Z,3.88
2022-10-01T19:06:11.348Z,4.10
2022-10-01T19:08:52.549Z,3.33
2022-10-01T19:11:54.846Z,4.10
2022-10-01T19:14:45.407Z,4.13
2022-10-01T19:17:29.981Z,3.85
2022-10-01T19:20:19.387Z,4.85
2022-10-01T19:23:03.079Z,4.10
2022-10-01T19:25:46.924Z,3.75
2022-10-01T19:28:34.880Z,4.20
2022-10-01T19:31:30.690Z,3.58
2022-10-01T19:34:21.146Z,4.38
2022-10-01T19:36:53.851Z,3.83
2022-10-01T19:39:25.090Z,4.90
2022-10-01T19:41:57.671Z,13.02
2022-10-01T19:44:53.991Z,9.80
2022-10-01T19:47:41.729Z,3.60
2022-10-01T19:50:31.998Z,4.80
2022-10-01T19:53:00.706Z,3.22
2022-10-01T19:55:32.139Z,4.13
2022-10-01T19:58:02.445Z,3.80
2022-10-01T20:00:31.674Z,4.90
2022-10-01T20:03:12.495Z,4.78
2022-10-01T20:06:21.287Z,3.50
2022-10-01T20:08:53.086Z,3.97
2022-10-01T20:11:20.206Z,3.50
2022-10-01T20:14:00.739Z,3.33
2022-10-01T20:16:40.023Z,2.70
2022-10-01T20:19:26.515Z,3.00
2022-10-01T20:22:34.344Z,3.08
2022-10-01T20:25:15.265Z,2.97
2022-10-01T20:27:49.290Z,3.97
2022-10-01T20:30:32.827Z,3.13
2022-10-01T20:33:15.850Z,4.53
2022-10-01T20:36:00.234Z,4.22
2022-10-01T20:38:48.190Z,3.55
2022-10-01T20:41:19.936Z,3.85
2022-10-01T20:44:00.978Z,3.30
2022-10-01T20:46:40.001Z,3.40
2022-10-01T20:49:45.723Z,3.05
2022-10-01T20:52:49.589Z,3.08
2022-10-01T20:55:28.086Z,4.05
2022-10-01T20:58:04.443Z,3.85
2022-10-01T21:00:30.586Z,3.55
2022-10-01T21:03:31.093Z,3.17
2022-10-01T21:06:29.663Z,3.70
2022-10-01T21:08:59.034Z,4.75
2022-10-01T21:11:33.846Z,4.20
2022-10-01T21:14:12.054Z,2.85
2022-10-01T21:17:29.213Z,4.40
2022-10-01T21:20:07.588Z,3.13
2022-10-01T21:22:37.366Z,3.50
2022-10-01T21:25:18.314Z,3.10
2022-10-01T21:27:59.648Z,3.65
2022-10-01T21:30:52.316Z,3.90
2022-10-01T21:33:25.193Z,3.90
2022-10-01T21:36:13.378Z,3.72
2022-10-01T21:38:48.625Z,4.05
2022-10-01T21:41:48.724Z,3.72
2022-10-01T21:44:33.387Z,4.28
2022-10-01T21:47:32.093Z,5.18
2022-10-01T21:50:24.133Z,4.15
2022-10-01T21:52:57.985Z,4.43
2022-10-01T21:55:49.025Z,5.72
2022-10-01T21:58:56.081Z,4.43
2022-10-01T22:02:15.837Z,4.85
2022-10-01T22:04:59.877Z,5.82
2022-10-01T22:07:34.759Z,4.82
2022-10-01T22:10:09.471Z,4.63
2022-10-01T22:12:39.803Z,5.68
2022-10-01T22:15:38.944Z,5.32
2022-10-01T22:18:09.880Z,5.38
2022-10-01T22:20:46.083Z,5.28
2022-10-01T22:23:17.490Z,5.28
2022-10-01T22:26:00.548Z,5.18
2022-10-01T22:28:33.611Z,5.97
2022-10-01T22:31:02.942Z,5.80
2022-10-01T22:33:38.090Z,5.90
2022-10-01T22:36:21.927Z,7.90
2022-10-01T22:38:56.513Z,4.68
2022-10-01T22:41:33.805Z,6.88
2022-10-01T22:44:06.300Z,7.07
2022-10-01T22:47:00.742Z,8.25
2022-10-01T22:50:01.883Z,10.10
2022-10-01T22:52:27.961Z,5.70
2022-10-01T22:55:06.748Z,5.43
2022-10-01T22:57:56.772Z,5.97
2022-10-01T23:00:23.728Z,5.82
2022-10-01T23:03:17.363Z,5.07
2022-10-01T23:06:01.285Z,4.95
2022-10-01T23:09:07.463Z,7.68
2022-10-01T23:11:55.273Z,4.47
2022-10-01T23:14:30.668Z,4.68
2022-10-01T23:16:59.908Z,4.22
2022-10-01T23:19:32.040Z,5.30
2022-10-01T23:22:05.830Z,5.22
2022-10-01T23:24:41.166Z,4.15
2022-10-01T23:27:20.758Z,5.25
2022-10-01T23:30:11.174Z,4.50
2022-10-01T23:33:05.291Z,5.07
2022-10-01T23:36:04.792Z,3.67
2022-10-01T23:38:31.339Z,4.80
2022-10-01T23:41:40.200Z,5.15
2022-10-01T23:44:49.529Z,4.30
2022-10-01T23:47:23.966Z,4.10
2022-10-01T23:49:55.482Z,3.47
2022-10-01T23:55:51.033Z,3.75
2022-10-01T23:58:20.970Z,3.33
